Harare, Zimbabwe

5:08 AM CAT on September 19, 2014 (GMT +0200)
Harare International | Change Station
CLOSE
Current Station
Airport
Location: Harare Kutsaga,
Elevation: 4856 ft
Nearby Weather Stations

Elev 4856 ft 17.92 °S, 31.13 °E | Updated 2 hours ago

Clear
Clear
64 °F
Feels Like 64 °F
N
9
Wind Variable Wind from ENE

Today
High -- | Low -- °F
--% Chance of Precip.
Yesterday
High -- | Low -- °F
Precip. -- in
5:48 AM 5:51 PM
Waning Crescent, 22% visible
Pressure 30.12 in
Visibility 5.6 miles
Clouds Clear
Dew Point 41 °F
Humidity 42%
Rainfall 0.00 in
Snow Depth Not available.
UV 0 out of 12
Pollen Not available.
Air Quality Not available.
Flu Activity Not available.
METAR FVHA 190100Z 07008KT 9000 SKC 18/05 Q1020

More Conditions Fewer Conditions

Pressure 30.12 in
Visibility 5.6 miles
Clouds Clear
Dew Point 41 °F
Humidity 42%
Rainfall 0.00 in
Snow Depth Not available.
UV 0 out of 12
Pollen Not available.
Air Quality Not available.
Flu Activity Not available.
METAR FVHA 190100Z 07008KT 9000 SKC 18/05 Q1020

More Conditions Fewer Conditions

10-Day Weather Forecast

Almanac

Astronomy

Sep. 19, 2014 Rise Set
Actual Time 5:48 AM CAT 5:51 PM CAT
Civil Twilight 5:26 AM CAT 6:13 PM CAT
Nautical Twilight 5:01 AM CAT 6:38 PM CAT
Astronomical Twilight 4:36 AM CAT 7:03 PM CAT
Moon 2:23 AM CAT 2:05 PM CAT
Length of Visible Light 12h 46m
Length of Day
12h 03m
Tomorrow will be 0m 59s longer.
Waning Crescent, 22% of the Moon is Illuminated
Sep 18
Waning Crescent
Sep 24
New
Oct 1
First Quarter
Oct 8
Full
Oct 15
Last Quarter

Yesterday's Extremes

Country Highs Country Lows

Community

WunderPhotos

Upload Photos

1,754,550 photos uploaded!

Nearby

Snow Depth

Not available.

Earthquake Activity

City Distance Mag. Time & Date
No recent earthquake activity has been reported nearby.
Minimum magnitude displayed is 2.5.

Coastal Water Temperatures

Place Temperature
No Stations Reporting

Nearby Weather Stations